createdAt,value
2018-12-18T00:00:10.795Z,73.13
2018-12-18T00:02:40.663Z,73.28
2018-12-18T00:05:16.883Z,73.31
2018-12-18T00:07:46.461Z,72.89
2018-12-18T00:10:17.060Z,72.86
2018-12-18T00:12:46.425Z,72.69
2018-12-18T00:15:16.356Z,72.66
2018-12-18T00:17:45.784Z,72.66
2018-12-18T00:20:16.979Z,72.52
2018-12-18T00:22:46.381Z,72.41
2018-12-18T00:25:16.790Z,72.46
2018-12-18T00:27:46.198Z,72.37
2018-12-18T00:30:17.074Z,72.25
2018-12-18T00:32:47.064Z,72.21
2018-12-18T00:35:17.944Z,71.81
2018-12-18T00:37:48.065Z,72.34
2018-12-18T00:40:18.135Z,71.78
2018-12-18T00:42:48.046Z,71.57
2018-12-18T00:45:17.707Z,71.31
2018-12-18T00:47:49.197Z,71.89
2018-12-18T00:50:19.191Z,71.91
2018-12-18T00:52:49.076Z,71.46
2018-12-18T00:56:22.034Z,71.86
2018-12-18T00:58:52.925Z,71.49
2018-12-18T01:01:24.250Z,71.51
2018-12-18T01:03:53.912Z,71.50
2018-12-18T01:06:23.506Z,71.48
2018-12-18T01:08:53.402Z,71.13
2018-12-18T01:11:23.452Z,71.34
2018-12-18T01:13:53.551Z,71.15
2018-12-18T01:16:23.848Z,71.37
2018-12-18T01:18:54.579Z,71.34
2018-12-18T01:21:24.559Z,71.07
2018-12-18T01:23:54.938Z,71.34
2018-12-18T01:26:24.763Z,71.56
2018-12-18T01:28:56.220Z,72.24
2018-12-18T01:31:26.311Z,72.09
2018-12-18T01:33:59.327Z,72.86
2018-12-18T01:36:28.960Z,73.46
2018-12-18T01:38:59.702Z,73.50
2018-12-18T01:41:30.382Z,74.20
2018-12-18T01:44:00.760Z,74.21
2018-12-18T01:46:30.459Z,73.96
2018-12-18T01:49:01.330Z,73.98
2018-12-18T01:51:31.014Z,74.40
2018-12-18T01:54:03.752Z,74.15
2018-12-18T01:56:33.867Z,74.42
2018-12-18T01:59:04.120Z,74.57
2018-12-18T02:01:34.240Z,74.25
2018-12-18T02:04:06.072Z,74.06
2018-12-18T02:06:36.048Z,74.23
2018-12-18T02:09:07.704Z,74.16
2018-12-18T02:11:37.351Z,74.24
2018-12-18T02:14:08.662Z,73.68
2018-12-18T02:16:38.986Z,74.08
2018-12-18T02:19:09.435Z,74.15
2018-12-18T02:21:39.133Z,73.63
2018-12-18T02:24:08.812Z,73.52
2018-12-18T02:26:38.480Z,73.60
2018-12-18T02:29:09.480Z,74.16
2018-12-18T02:31:39.454Z,74.40
2018-12-18T02:34:13.854Z,74.89
2018-12-18T02:36:43.570Z,74.75
2018-12-18T02:39:13.365Z,74.92
2018-12-18T02:41:43.076Z,75.09
2018-12-18T02:44:13.444Z,74.92
2018-12-18T02:46:43.344Z,74.56
2018-12-18T02:49:12.999Z,74.99
2018-12-18T02:51:43.082Z,74.59
2018-12-18T02:54:12.790Z,74.85
2018-12-18T02:56:42.169Z,75.00
2018-12-18T02:59:12.873Z,75.03
2018-12-18T03:01:42.742Z,74.92
2018-12-18T03:04:12.751Z,74.74
2018-12-18T03:06:43.319Z,74.85
2018-12-18T03:09:13.264Z,75.33
2018-12-18T03:11:42.714Z,75.17
2018-12-18T03:14:12.807Z,74.72
2018-12-18T03:16:42.420Z,74.93
2018-12-18T03:19:12.286Z,74.82
2018-12-18T03:21:42.663Z,74.40
2018-12-18T03:24:12.174Z,74.53
2018-12-18T03:26:41.773Z,74.49
2018-12-18T03:29:11.894Z,74.00
2018-12-18T03:31:45.446Z,74.03
2018-12-18T03:34:14.991Z,73.79
2018-12-18T03:36:44.921Z,74.12
2018-12-18T03:39:14.578Z,74.02
2018-12-18T03:41:43.916Z,74.61
2018-12-18T03:44:13.832Z,74.17
2018-12-18T03:46:43.514Z,74.33
2018-12-18T03:49:13.251Z,73.92
2018-12-18T03:51:43.370Z,73.99
2018-12-18T03:54:14.104Z,73.98
2018-12-18T03:56:44.770Z,73.74
2018-12-18T03:59:16.006Z,73.48
2018-12-18T04:01:46.499Z,74.06
2018-12-18T04:04:16.690Z,74.08
2018-12-18T04:06:46.791Z,74.26
2018-12-18T04:09:17.050Z,73.95
2018-12-18T04:11:51.610Z,74.01
2018-12-18T04:14:21.244Z,73.92
2018-12-18T04:16:51.087Z,74.20
2018-12-18T04:19:21.051Z,74.17
2018-12-18T04:21:51.557Z,73.66
2018-12-18T04:24:22.744Z,73.49
2018-12-18T04:26:53.459Z,73.50
2018-12-18T04:29:23.197Z,73.07
2018-12-18T04:31:52.817Z,73.11
2018-12-18T04:34:23.108Z,73.21
2018-12-18T04:36:53.152Z,72.48
2018-12-18T04:39:23.828Z,72.81
2018-12-18T04:41:54.325Z,72.47
2018-12-18T04:44:23.878Z,72.33
2018-12-18T04:46:54.571Z,72.25
2018-12-18T04:49:24.689Z,72.21
2018-12-18T04:51:54.937Z,71.71
2018-12-18T04:54:24.336Z,71.72
2018-12-18T04:56:54.488Z,71.71
2018-12-18T04:59:24.319Z,71.91
2018-12-18T05:01:54.752Z,71.71
2018-12-18T05:04:24.289Z,71.71
2018-12-18T05:06:53.702Z,71.63
2018-12-18T05:09:23.416Z,71.79
2018-12-18T05:11:53.734Z,71.58
2018-12-18T05:16:59.682Z,71.40
2018-12-18T05:19:29.617Z,71.20
2018-12-18T05:21:59.256Z,71.20
2018-12-18T05:24:28.818Z,71.35
2018-12-18T05:26:58.431Z,71.61
2018-12-18T05:29:27.936Z,71.04
2018-12-18T05:31:58.431Z,71.42
2018-12-18T05:34:28.041Z,71.04
2018-12-18T05:36:57.596Z,71.36
2018-12-18T05:39:29.323Z,71.28
2018-12-18T05:41:59.436Z,71.44
2018-12-18T05:44:29.681Z,70.91
2018-12-18T05:47:30.476Z,71.13
2018-12-18T05:50:00.369Z,71.03
2018-12-18T05:52:30.313Z,70.89
2018-12-18T05:54:59.814Z,70.58
2018-12-18T05:57:29.170Z,70.52
2018-12-18T05:59:58.850Z,70.43
2018-12-18T06:02:28.199Z,70.34
2018-12-18T06:05:03.245Z,70.15
2018-12-18T06:07:29.443Z,70.30
2018-12-18T06:10:00.288Z,70.26
2018-12-18T06:12:29.988Z,70.08
2018-12-18T06:15:00.545Z,69.96
2018-12-18T06:17:30.358Z,69.66
2018-12-18T06:20:00.903Z,69.76
2018-12-18T06:22:30.538Z,69.77
2018-12-18T06:25:00.224Z,69.62
2018-12-18T06:27:31.569Z,69.65
2018-12-18T06:30:02.598Z,69.43
2018-12-18T06:32:32.305Z,69.02
2018-12-18T06:35:02.011Z,69.37
2018-12-18T06:37:31.469Z,69.12
2018-12-18T06:40:02.993Z,68.90
2018-12-18T06:42:32.790Z,68.66
2018-12-18T06:45:04.558Z,68.72
2018-12-18T06:47:33.991Z,68.82
2018-12-18T06:50:05.625Z,68.53
2018-12-18T06:52:35.466Z,68.83
2018-12-18T06:55:05.661Z,68.62
2018-12-18T06:57:36.416Z,69.01
2018-12-18T07:00:11.173Z,69.50
2018-12-18T07:02:41.879Z,69.48
2018-12-18T07:05:16.678Z,69.98
2018-12-18T07:07:43.176Z,69.89
2018-12-18T07:10:12.696Z,70.62
2018-12-18T07:12:42.413Z,70.87
2018-12-18T07:15:12.713Z,70.96
2018-12-18T07:17:42.901Z,71.50
2018-12-18T07:20:14.250Z,71.36
2018-12-18T07:22:43.865Z,71.37
2018-12-18T07:25:14.634Z,71.64
2018-12-18T07:27:44.628Z,71.65
2018-12-18T07:30:14.028Z,72.08
2018-12-18T07:32:44.817Z,71.86
2018-12-18T07:35:23.090Z,72.14
2018-12-18T07:37:49.210Z,72.12
2018-12-18T07:40:19.189Z,72.26
2018-12-18T07:42:50.042Z,72.08
2018-12-18T07:45:20.826Z,72.07
2018-12-18T07:47:50.212Z,71.99
2018-12-18T07:50:19.892Z,71.88
2018-12-18T07:52:50.529Z,71.95
2018-12-18T07:55:20.428Z,72.02
2018-12-18T07:57:50.130Z,72.01
2018-12-18T08:00:20.637Z,72.00
2018-12-18T08:02:50.505Z,71.95
2018-12-18T08:05:20.228Z,71.67
2018-12-18T08:07:50.365Z,71.55
2018-12-18T08:10:20.471Z,71.51
2018-12-18T08:12:50.133Z,71.58
2018-12-18T08:15:20.186Z,71.74
2018-12-18T08:17:50.806Z,71.55
2018-12-18T08:20:20.673Z,71.50
2018-12-18T08:22:50.504Z,71.50
2018-12-18T08:25:19.965Z,71.23
2018-12-18T08:27:50.059Z,71.20
2018-12-18T08:30:19.878Z,71.44
2018-12-18T08:32:49.326Z,70.99
2018-12-18T08:35:18.798Z,71.20
2018-12-18T08:37:48.541Z,71.01
2018-12-18T08:40:18.644Z,70.93
2018-12-18T08:42:49.390Z,70.80
2018-12-18T08:45:19.522Z,70.75
2018-12-18T08:47:49.242Z,70.82
2018-12-18T08:50:18.839Z,70.75
2018-12-18T08:52:48.589Z,70.91
2018-12-18T08:55:18.518Z,70.83
2018-12-18T08:57:48.282Z,70.61
2018-12-18T09:00:18.046Z,70.55
2018-12-18T09:02:48.557Z,70.25
2018-12-18T09:05:18.193Z,70.56
2018-12-18T09:07:48.060Z,70.25
2018-12-18T09:10:17.502Z,69.97
2018-12-18T09:12:47.276Z,70.09
2018-12-18T09:15:23.119Z,69.74
2018-12-18T09:17:55.970Z,69.81
2018-12-18T09:20:25.872Z,69.74
2018-12-18T09:22:56.356Z,69.72
2018-12-18T09:25:26.643Z,69.62
2018-12-18T09:27:58.015Z,69.74
2018-12-18T09:30:27.731Z,69.29
2018-12-18T09:32:59.567Z,68.74
2018-12-18T09:35:30.395Z,68.41
2018-12-18T09:38:07.160Z,68.69
2018-12-18T09:40:43.098Z,67.83
2018-12-18T09:43:17.860Z,68.23
2018-12-18T09:45:47.339Z,67.45
2018-12-18T09:48:18.252Z,67.30
2018-12-18T09:50:47.997Z,66.94
2018-12-18T09:53:18.414Z,66.69
2018-12-18T09:55:48.208Z,66.83
2018-12-18T09:58:18.114Z,65.94
2018-12-18T10:00:50.497Z,65.93
2018-12-18T10:03:20.287Z,65.81
2018-12-18T10:05:56.131Z,65.44
2018-12-18T10:08:24.584Z,65.47
2018-12-18T10:10:55.191Z,65.32
2018-12-18T10:13:24.786Z,65.25
2018-12-18T10:15:54.278Z,64.96
2018-12-18T10:18:26.892Z,64.96
2018-12-18T10:20:56.723Z,64.57
2018-12-18T10:23:28.414Z,64.60
2018-12-18T10:25:58.578Z,64.26
2018-12-18T10:28:28.808Z,63.76
2018-12-18T10:30:59.523Z,63.54
2018-12-18T10:33:30.145Z,63.47
2018-12-18T10:36:03.117Z,63.72
2018-12-18T10:38:32.895Z,63.20
2018-12-18T10:41:07.128Z,63.17
2018-12-18T10:43:39.034Z,62.88
2018-12-18T10:46:09.143Z,62.59
2018-12-18T10:48:39.569Z,62.23
2018-12-18T10:51:13.262Z,62.03
2018-12-18T10:53:42.999Z,61.94
2018-12-18T10:56:13.857Z,61.95
2018-12-18T10:58:46.366Z,61.94
2018-12-18T11:01:24.231Z,61.83
2018-12-18T11:03:54.831Z,61.67
2018-12-18T11:06:26.921Z,61.43
2018-12-18T11:09:00.785Z,60.88
2018-12-18T11:11:32.842Z,61.02
2018-12-18T11:14:03.986Z,60.71
2018-12-18T11:16:37.467Z,60.71
2018-12-18T11:19:08.765Z,60.47
2018-12-18T11:21:38.900Z,59.97
2018-12-18T11:24:08.802Z,59.69
2018-12-18T11:26:38.921Z,59.19
2018-12-18T11:29:10.363Z,58.44
2018-12-18T11:31:39.902Z,58.37
2018-12-18T11:34:09.364Z,58.08
2018-12-18T11:36:38.968Z,57.57
2018-12-18T11:39:10.278Z,57.41
2018-12-18T11:41:39.722Z,57.14
2018-12-18T11:44:10.353Z,56.78
2018-12-18T11:46:40.355Z,57.15
2018-12-18T11:49:12.762Z,57.05
2018-12-18T11:51:45.003Z,57.40
2018-12-18T11:54:15.673Z,56.82
2018-12-18T11:56:46.015Z,56.83
2018-12-18T11:59:16.668Z,56.65
2018-12-18T12:01:46.234Z,56.77
2018-12-18T12:04:20.960Z,56.39
2018-12-18T12:06:53.015Z,56.72
2018-12-18T12:09:22.856Z,56.59
2018-12-18T12:11:52.479Z,55.71
2018-12-18T12:14:22.827Z,55.90
2018-12-18T12:16:52.433Z,56.23
2018-12-18T12:19:22.240Z,56.49
2018-12-18T12:21:52.640Z,56.61
2018-12-18T12:24:22.297Z,56.95
2018-12-18T12:26:53.973Z,56.68
2018-12-18T12:29:24.314Z,56.66
2018-12-18T12:31:54.396Z,56.77
2018-12-18T12:34:24.832Z,56.76
2018-12-18T12:36:54.481Z,56.87
2018-12-18T12:39:25.452Z,56.81
2018-12-18T12:41:54.841Z,56.80
2018-12-18T12:44:24.561Z,57.24
2018-12-18T12:46:54.061Z,57.05
2018-12-18T12:49:27.706Z,57.11
2018-12-18T12:51:57.045Z,56.84
2018-12-18T12:54:28.505Z,57.20
2018-12-18T12:56:58.751Z,57.26
2018-12-18T12:59:32.824Z,57.31
2018-12-18T13:02:02.996Z,56.73
2018-12-18T13:04:32.447Z,56.92
2018-12-18T13:07:10.746Z,56.93
2018-12-18T13:09:45.191Z,57.17
2018-12-18T13:12:17.147Z,57.45
2018-12-18T13:14:47.502Z,57.69
2018-12-18T13:17:22.153Z,57.96
2018-12-18T13:19:53.153Z,57.97
2018-12-18T13:22:23.203Z,58.02
2018-12-18T13:24:54.970Z,58.32
2018-12-18T13:27:32.175Z,58.07
2018-12-18T13:30:03.994Z,58.07
2018-12-18T13:32:39.313Z,58.36
2018-12-18T13:35:13.272Z,58.55
2018-12-18T13:37:44.640Z,58.29
2018-12-18T13:40:14.853Z,58.37
2018-12-18T13:42:44.946Z,58.44
2018-12-18T13:45:15.696Z,58.45
2018-12-18T13:47:48.199Z,59.49
2018-12-18T13:50:18.570Z,60.12
2018-12-18T13:52:52.982Z,60.53
2018-12-18T13:55:23.437Z,60.91
2018-12-18T13:57:55.127Z,61.32
2018-12-18T14:00:24.913Z,61.51
2018-12-18T14:02:59.806Z,61.68
2018-12-18T14:05:30.133Z,61.93
2018-12-18T14:07:59.747Z,62.04
2018-12-18T14:10:30.423Z,62.49
2018-12-18T14:13:01.157Z,62.67
2018-12-18T14:15:30.793Z,62.69
2018-12-18T14:18:00.825Z,62.84
2018-12-18T14:20:32.946Z,62.70
2018-12-18T14:25:09.452Z,63.05
2018-12-18T14:27:40.073Z,63.20
2018-12-18T14:30:11.352Z,63.32
2018-12-18T14:32:41.332Z,63.42
2018-12-18T14:35:12.271Z,63.42
2018-12-18T14:37:43.559Z,63.54
2018-12-18T14:40:14.143Z,63.68
2018-12-18T14:42:43.741Z,64.00
2018-12-18T14:45:15.911Z,64.58
2018-12-18T14:47:47.641Z,64.43
2018-12-18T14:50:18.238Z,64.81
2018-12-18T14:52:50.753Z,64.36
2018-12-18T14:55:21.045Z,64.78
2018-12-18T14:57:54.331Z,65.08
2018-12-18T15:00:25.117Z,65.45
2018-12-18T15:02:57.725Z,65.31
2018-12-18T15:05:28.794Z,65.67
2018-12-18T15:07:58.656Z,66.12
2018-12-18T15:10:29.958Z,65.95
2018-12-18T15:13:00.326Z,66.69
2018-12-18T15:15:30.715Z,66.61
2018-12-18T15:18:00.704Z,66.72
2018-12-18T15:20:32.519Z,67.50
2018-12-18T15:23:05.962Z,67.40
2018-12-18T15:25:37.385Z,67.51
2018-12-18T15:28:11.512Z,67.68
2018-12-18T15:30:45.208Z,68.07
2018-12-18T15:33:17.532Z,67.81
2018-12-18T15:35:50.173Z,67.91
2018-12-18T15:38:24.467Z,68.00
2018-12-18T15:40:57.986Z,67.77
2018-12-18T15:43:47.867Z,67.58
2018-12-18T15:46:24.418Z,68.07
2018-12-18T15:48:59.010Z,67.86
2018-12-18T15:51:32.190Z,68.14
2018-12-18T15:54:09.768Z,67.99
2018-12-18T15:56:42.753Z,68.41
2018-12-18T15:59:14.740Z,67.97
2018-12-18T16:01:47.440Z,68.17
2018-12-18T16:04:18.921Z,68.59
2018-12-18T16:06:50.532Z,68.59
2018-12-18T16:09:23.801Z,68.35
2018-12-18T16:11:55.109Z,69.07
2018-12-18T16:14:26.832Z,68.96
2018-12-18T16:17:02.826Z,68.98
2018-12-18T16:19:35.652Z,69.66
2018-12-18T16:22:13.395Z,69.74
2018-12-18T16:24:46.140Z,69.64
2018-12-18T16:27:17.528Z,70.11
2018-12-18T16:29:49.428Z,70.09
2018-12-18T16:32:20.889Z,70.47
2018-12-18T16:34:52.745Z,70.71
2018-12-18T16:37:25.001Z,70.73
2018-12-18T16:39:55.118Z,70.60
2018-12-18T16:42:27.217Z,70.71
2018-12-18T16:44:57.285Z,70.91
2018-12-18T16:47:28.176Z,70.67
2018-12-18T16:49:58.146Z,70.83
2018-12-18T16:52:28.254Z,70.04
2018-12-18T16:54:59.182Z,70.39
2018-12-18T16:57:30.170Z,70.35
2018-12-18T17:00:01.778Z,70.33
2018-12-18T17:02:32.558Z,70.52
2018-12-18T17:05:02.039Z,70.48
2018-12-18T17:07:32.555Z,70.69
2018-12-18T17:10:02.616Z,70.55
2018-12-18T17:12:32.472Z,70.76
2018-12-18T17:15:04.674Z,71.01
2018-12-18T17:17:34.862Z,71.29
2018-12-18T17:20:06.003Z,71.22
2018-12-18T17:22:35.736Z,71.41
2018-12-18T17:25:06.665Z,71.17
2018-12-18T17:27:36.152Z,71.37
2018-12-18T17:30:10.251Z,71.50
2018-12-18T17:32:42.524Z,71.80
2018-12-18T17:35:12.363Z,71.64
2018-12-18T17:37:41.893Z,71.87
2018-12-18T17:40:12.633Z,71.75
2018-12-18T17:42:42.608Z,72.17
2018-12-18T17:45:16.763Z,72.14
2018-12-18T17:47:47.979Z,72.18
2018-12-18T17:50:24.856Z,72.13
2018-12-18T17:52:57.135Z,72.42
2018-12-18T17:55:27.186Z,72.52
2018-12-18T17:57:59.884Z,72.58
2018-12-18T18:00:32.083Z,72.60
2018-12-18T18:03:06.045Z,72.55
2018-12-18T18:05:37.483Z,72.74
2018-12-18T18:08:12.282Z,72.75
2018-12-18T18:10:42.369Z,72.50
2018-12-18T18:13:11.794Z,72.91
2018-12-18T18:15:41.892Z,73.15
2018-12-18T18:18:11.548Z,73.46
2018-12-18T18:20:42.774Z,73.30
2018-12-18T18:23:16.722Z,73.32
2018-12-18T18:25:47.391Z,73.43
2018-12-18T18:28:16.966Z,73.34
2018-12-18T18:30:47.802Z,73.61
2018-12-18T18:33:17.646Z,73.18
2018-12-18T18:35:47.422Z,73.54
2018-12-18T18:38:17.477Z,73.71
2018-12-18T18:40:47.260Z,73.51
2018-12-18T18:43:17.935Z,74.11
2018-12-18T18:45:48.655Z,73.99
2018-12-18T18:48:18.591Z,73.95
2018-12-18T18:50:48.292Z,74.32
2018-12-18T18:53:19.136Z,74.46
2018-12-18T18:55:49.206Z,74.11
2018-12-18T18:58:19.003Z,74.27
2018-12-18T19:01:01.147Z,74.41
2018-12-18T19:03:32.575Z,74.24
2018-12-18T19:06:04.207Z,74.12
2018-12-18T19:08:36.495Z,74.04
2018-12-18T19:11:06.803Z,74.27
2018-12-18T19:13:37.383Z,74.31
2018-12-18T19:16:07.849Z,74.50
2018-12-18T19:18:41.932Z,74.59
2018-12-18T19:21:12.603Z,74.95
2018-12-18T19:23:45.830Z,74.96
2018-12-18T19:26:15.914Z,74.78
2018-12-18T19:28:50.162Z,74.69
2018-12-18T19:31:29.827Z,75.00
2018-12-18T19:34:01.621Z,74.99
2018-12-18T19:36:32.713Z,75.12
2018-12-18T19:39:12.778Z,75.30
2018-12-18T19:41:43.683Z,74.93
2018-12-18T19:44:19.434Z,75.08
2018-12-18T19:46:52.647Z,75.10
2018-12-18T19:49:23.645Z,74.96
2018-12-18T19:51:53.567Z,75.19
2018-12-18T19:54:24.638Z,74.91
2018-12-18T19:56:54.426Z,75.06
2018-12-18T19:59:24.477Z,75.20
2018-12-18T20:01:55.135Z,75.66
2018-12-18T20:04:25.314Z,75.74
2018-12-18T20:06:54.908Z,75.91
2018-12-18T20:09:24.377Z,75.66
2018-12-18T20:11:54.189Z,75.69
2018-12-18T20:14:24.171Z,75.67
2018-12-18T20:16:57.078Z,75.87
2018-12-18T20:19:26.628Z,76.13
2018-12-18T20:21:56.288Z,76.51
2018-12-18T20:24:26.163Z,76.45
2018-12-18T20:26:55.758Z,76.85
2018-12-18T20:29:25.446Z,76.70
2018-12-18T20:31:54.886Z,76.90
2018-12-18T20:34:25.063Z,77.16
2018-12-18T20:36:54.944Z,77.20
2018-12-18T20:39:24.671Z,77.15
2018-12-18T20:41:56.588Z,77.68
2018-12-18T20:44:26.242Z,77.44
2018-12-18T20:46:55.723Z,77.39
2018-12-18T20:49:25.139Z,77.08
2018-12-18T20:51:54.698Z,77.53
2018-12-18T20:54:24.470Z,77.12
2018-12-18T20:56:54.700Z,77.28
2018-12-18T20:59:24.290Z,77.04
2018-12-18T21:01:54.056Z,77.14
2018-12-18T21:04:23.699Z,76.96
2018-12-18T21:06:53.483Z,76.89
2018-12-18T21:09:23.192Z,77.21
2018-12-18T21:11:53.419Z,77.28
2018-12-18T21:14:22.875Z,77.37
2018-12-18T21:16:52.388Z,77.39
2018-12-18T21:19:22.717Z,77.57
2018-12-18T21:21:52.557Z,77.33
2018-12-18T21:24:23.807Z,77.27
2018-12-18T21:26:54.225Z,77.29
2018-12-18T21:29:24.743Z,77.09
2018-12-18T21:31:54.525Z,77.28
2018-12-18T21:34:24.096Z,77.10
2018-12-18T21:36:54.917Z,76.96
2018-12-18T21:39:24.834Z,77.16
2018-12-18T21:41:55.193Z,76.91
2018-12-18T21:44:25.184Z,77.26
2018-12-18T21:46:56.249Z,76.75
2018-12-18T21:49:26.225Z,77.01
2018-12-18T21:51:56.289Z,77.50
2018-12-18T21:54:26.618Z,77.19
2018-12-18T21:56:56.545Z,77.11
2018-12-18T21:59:26.406Z,77.15
2018-12-18T22:01:56.174Z,76.83
2018-12-18T22:04:26.737Z,76.98
2018-12-18T22:06:57.540Z,77.15
2018-12-18T22:09:28.017Z,76.95
2018-12-18T22:11:57.844Z,77.19
2018-12-18T22:14:31.391Z,77.12
2018-12-18T22:17:01.742Z,76.86
2018-12-18T22:19:32.267Z,76.97
2018-12-18T22:22:03.880Z,77.04
2018-12-18T22:24:34.140Z,76.74
2018-12-18T22:27:04.167Z,76.80
2018-12-18T22:29:33.819Z,76.65
2018-12-18T22:32:03.756Z,76.79
2018-12-18T22:34:34.136Z,76.68
2018-12-18T22:37:03.847Z,76.04
2018-12-18T22:39:33.922Z,76.51
2018-12-18T22:42:03.374Z,76.38
2018-12-18T22:44:33.403Z,76.70
2018-12-18T22:47:02.850Z,76.76
2018-12-18T22:49:32.760Z,76.58
2018-12-18T22:52:03.201Z,76.37
2018-12-18T22:54:33.366Z,76.72
2018-12-18T22:57:03.504Z,76.79
2018-12-18T22:59:33.485Z,76.54
2018-12-18T23:02:10.765Z,76.75
2018-12-18T23:04:40.699Z,76.68
2018-12-18T23:07:11.911Z,76.74
2018-12-18T23:09:41.413Z,76.85
2018-12-18T23:12:11.439Z,76.95
2018-12-18T23:14:41.489Z,76.96
2018-12-18T23:17:11.334Z,76.74
2018-12-18T23:19:40.959Z,76.89
2018-12-18T23:22:10.860Z,77.05
2018-12-18T23:24:40.579Z,76.93
2018-12-18T23:27:11.108Z,76.90
2018-12-18T23:29:41.229Z,77.03
2018-12-18T23:32:13.098Z,76.90
2018-12-18T23:34:43.172Z,76.86
2018-12-18T23:37:13.016Z,76.89
2018-12-18T23:39:43.023Z,76.68
2018-12-18T23:42:13.681Z,76.92
2018-12-18T23:44:43.584Z,76.62
2018-12-18T23:47:12.999Z,76.59
2018-12-18T23:49:42.687Z,76.92
2018-12-18T23:52:12.656Z,76.57
2018-12-18T23:54:42.412Z,76.77
2018-12-18T23:57:12.546Z,76.64
2018-12-18T23:59:42.448Z,76.59
